Time;durP1;ratioP1;P1;durP2;ratioP2;P2;SDS_P1;SDS_P2;PMS_P1;PMS_P2;Temp;Humidity;BMP_temperature;BMP_pressure;BME280_temperature;BME280_humidity;BME280_pressure;Samples;Min_cycle;Max_cycle;Signal;HPM_P1;HPM_P2
2021/04/29 00:00:40;;;;;;;3.40;2.70;;;;;;;;;;5074792;28;20204;-81
2021/04/29 00:03:07;;;;;;;2.75;2.47;;;;;;;;;;5074105;28;20221;-81
2021/04/29 00:05:35;;;;;;;2.92;2.70;;;;;;;;;;5073851;28;20228;-81
2021/04/29 00:08:03;;;;;;;3.15;2.50;;;;;;;;;;5073604;28;20222;-81
2021/04/29 00:10:32;;;;;;;8.10;3.28;;;;;;;;;;5074102;28;20593;-81
2021/04/29 00:12:59;;;;;;;3.63;2.63;;;;;;;;;;5073149;28;20590;-81
2021/04/29 00:15:27;;;;;;;4.22;2.88;;;;;;;;;;5074104;28;20201;-81
2021/04/29 00:17:54;;;;;;;3.20;2.80;;;;;;;;;;5073936;28;20182;-81
2021/04/29 00:20:23;;;;;;;3.10;2.90;;;;;;;;;;5073642;28;20185;-81
2021/04/29 00:22:51;;;;;;;3.10;2.90;;;;;;;;;;5073782;28;20220;-81
2021/04/29 00:25:18;;;;;;;3.22;2.92;;;;;;;;;;5072579;28;20205;-81
2021/04/29 00:27:45;;;;;;;4.78;2.85;;;;;;;;;;5072700;28;20205;-81
2021/04/29 00:30:14;;;;;;;4.22;3.15;;;;;;;;;;5073765;28;20208;-81
2021/04/29 00:32:41;;;;;;;3.67;2.97;;;;;;;;;;5073525;28;20228;-81
2021/04/29 00:35:11;;;;;;;3.20;2.95;;;;;;;;;;5073070;28;20184;-81
2021/04/29 00:37:37;;;;;;;2.92;2.72;;;;;;;;;;5073655;28;20185;-81
2021/04/29 00:40:07;;;;;;;2.58;2.33;;;;;;;;;;5072968;28;20201;-81
2021/04/29 00:42:37;;;;;;;3.45;3.10;;;;;;;;;;5073395;28;20232;-81
2021/04/29 00:45:08;;;;;;;3.38;3.05;;;;;;;;;;5072903;28;20208;-81
2021/04/29 00:47:35;;;;;;;4.35;3.90;;;;;;;;;;5072784;28;20185;-80
2021/04/29 00:50:02;;;;;;;3.30;3.00;;;;;;;;;;5072562;28;20816;-81
2021/04/29 00:52:29;;;;;;;3.38;3.08;;;;;;;;;;5073371;28;20221;-81
2021/04/29 00:54:56;;;;;;;4.30;2.72;;;;;;;;;;5073162;28;20560;-81
2021/04/29 00:57:25;;;;;;;3.05;2.85;;;;;;;;;;5071866;28;20262;-81
2021/04/29 00:59:52;;;;;;;2.72;2.53;;;;;;;;;;5072329;28;20189;-81
2021/04/29 01:02:19;;;;;;;3.67;3.38;;;;;;;;;;5072430;28;20775;-80
2021/04/29 01:04:54;;;;;;;3.30;3.00;;;;;;;;;;5071874;28;20255;-81
2021/04/29 01:07:21;;;;;;;3.08;2.88;;;;;;;;;;5072060;28;20181;-81
2021/04/29 01:09:53;;;;;;;2.95;2.65;;;;;;;;;;5072397;28;20196;-81
2021/04/29 01:12:24;;;;;;;3.08;2.88;;;;;;;;;;5071835;28;20225;-81
2021/04/29 01:14:55;;;;;;;4.30;3.35;;;;;;;;;;5071796;28;20643;-81
2021/04/29 01:17:22;;;;;;;3.15;2.95;;;;;;;;;;5071659;28;20192;-81
2021/04/29 01:19:55;;;;;;;3.17;2.90;;;;;;;;;;5071664;28;20208;-81
2021/04/29 01:22:22;;;;;;;3.17;2.88;;;;;;;;;;5072674;28;20572;-81
2021/04/29 01:24:56;;;;;;;3.60;3.30;;;;;;;;;;5071973;28;20212;-81
2021/04/29 01:27:24;;;;;;;3.58;3.28;;;;;;;;;;5071297;28;20185;-81
2021/04/29 01:29:52;;;;;;;3.33;3.03;;;;;;;;;;5072009;28;20192;-81
2021/04/29 01:32:19;;;;;;;3.53;3.22;;;;;;;;;;5072349;28;20639;-81
2021/04/29 01:34:47;;;;;;;3.67;3.38;;;;;;;;;;5072350;28;20584;-81
2021/04/29 01:37:14;;;;;;;3.78;3.45;;;;;;;;;;5071617;28;20663;-81
2021/04/29 01:39:41;;;;;;;4.00;3.55;;;;;;;;;;5071870;28;20189;-81
2021/04/29 01:42:09;;;;;;;3.13;2.92;;;;;;;;;;5072020;28;20654;-81
2021/04/29 01:44:37;;;;;;;5.20;3.45;;;;;;;;;;5071705;28;20328;-81
2021/04/29 01:47:04;;;;;;;3.58;2.92;;;;;;;;;;5071678;28;20182;-81
2021/04/29 01:49:31;;;;;;;3.15;2.95;;;;;;;;;;5072399;28;20194;-80
2021/04/29 01:52:00;;;;;;;4.57;3.42;;;;;;;;;;5072707;28;20603;-81
2021/04/29 01:54:27;;;;;;;3.25;2.95;;;;;;;;;;5072805;28;20204;-81
2021/04/29 01:56:54;;;;;;;3.30;3.10;;;;;;;;;;5072412;28;20185;-81
2021/04/29 01:59:22;;;;;;;3.25;3.00;;;;;;;;;;5072168;28;20196;-81
2021/04/29 02:01:50;;;;;;;3.22;3.00;;;;;;;;;;5071495;28;20194;-81
2021/04/29 02:04:17;;;;;;;4.20;3.80;;;;;;;;;;5071405;28;20236;-81
2021/04/29 02:06:46;;;;;;;3.38;3.17;;;;;;;;;;5071073;28;20224;-81
2021/04/29 02:09:13;;;;;;;3.90;3.60;;;;;;;;;;5071776;28;20182;-81
2021/04/29 02:11:48;;;;;;;3.80;3.33;;;;;;;;;;5072163;28;20207;-81
2021/04/29 02:14:19;;;;;;;4.40;4.00;;;;;;;;;;5071678;28;20176;-81
2021/04/29 02:16:49;;;;;;;4.28;3.88;;;;;;;;;;5071785;28;20230;-81
2021/04/29 02:19:17;;;;;;;4.88;4.47;;;;;;;;;;5071760;28;20193;-81
2021/04/29 02:21:49;;;;;;;4.72;4.32;;;;;;;;;;5071741;28;20185;-81
2021/04/29 02:24:16;;;;;;;5.03;4.43;;;;;;;;;;5071183;28;20574;-81
2021/04/29 02:26:43;;;;;;;4.75;4.22;;;;;;;;;;5071629;28;20216;-81
2021/04/29 02:29:10;;;;;;;5.07;4.53;;;;;;;;;;5075509;28;20193;-81
2021/04/29 02:31:38;;;;;;;6.28;4.40;;;;;;;;;;5075564;28;20197;-81
2021/04/29 02:34:06;;;;;;;5.50;5.00;;;;;;;;;;5075696;28;20632;-81
2021/04/29 02:36:35;;;;;;;4.95;4.53;;;;;;;;;;5075523;28;20186;-81
2021/04/29 02:39:04;;;;;;;5.18;4.55;;;;;;;;;;5075947;28;20178;-81
2021/04/29 02:41:31;;;;;;;6.75;6.03;;;;;;;;;;5076013;28;20193;-81
2021/04/29 02:44:00;;;;;;;5.00;4.60;;;;;;;;;;5076439;28;20212;-81
2021/04/29 02:46:27;;;;;;;5.38;4.13;;;;;;;;;;5076437;28;20217;-81
2021/04/29 02:48:54;;;;;;;5.80;4.15;;;;;;;;;;5076286;28;20189;-81
2021/04/29 02:51:22;;;;;;;4.78;4.35;;;;;;;;;;5075525;28;20640;-81
2021/04/29 02:53:50;;;;;;;4.60;4.20;;;;;;;;;;5075246;28;20225;-81
2021/04/29 02:56:17;;;;;;;6.38;5.55;;;;;;;;;;5075158;28;20189;-80
2021/04/29 02:58:48;;;;;;;5.38;4.88;;;;;;;;;;5074380;28;20181;-81
2021/04/29 03:01:16;;;;;;;6.68;4.55;;;;;;;;;;5075152;28;20671;-81
2021/04/29 03:03:43;;;;;;;5.78;5.07;;;;;;;;;;5074989;28;20795;-81
2021/04/29 03:06:11;;;;;;;5.40;4.90;;;;;;;;;;5074714;28;20225;-81
2021/04/29 03:08:39;;;;;;;5.05;4.53;;;;;;;;;;5075417;28;20242;-81
2021/04/29 03:11:06;;;;;;;9.23;4.90;;;;;;;;;;5074830;28;20234;-81
2021/04/29 03:13:33;;;;;;;5.30;4.88;;;;;;;;;;5074910;28;20578;-81
2021/04/29 03:16:00;;;;;;;5.78;5.25;;;;;;;;;;5074815;28;20223;-81
2021/04/29 03:18:28;;;;;;;6.95;5.90;;;;;;;;;;5075333;28;20185;-80
2021/04/29 03:20:55;;;;;;;6.22;5.72;;;;;;;;;;5075341;28;20185;-81
2021/04/29 03:23:22;;;;;;;6.03;5.53;;;;;;;;;;5074876;28;20221;-81
2021/04/29 03:25:50;;;;;;;6.07;5.57;;;;;;;;;;5074460;28;20228;-81
2021/04/29 03:28:17;;;;;;;6.10;5.57;;;;;;;;;;5074404;28;20201;-81
2021/04/29 03:30:44;;;;;;;6.20;5.70;;;;;;;;;;5074422;28;20200;-81
2021/04/29 03:33:11;;;;;;;7.00;5.40;;;;;;;;;;5074176;28;20702;-81
2021/04/29 03:35:38;;;;;;;7.68;6.90;;;;;;;;;;5073904;28;20216;-81
2021/04/29 03:38:05;;;;;;;7.78;6.85;;;;;;;;;;5073603;28;20197;-81
2021/04/29 03:40:32;;;;;;;8.05;7.35;;;;;;;;;;5074483;28;20235;-81
2021/04/29 03:43:00;;;;;;;7.40;6.70;;;;;;;;;;5074829;28;20225;-81
2021/04/29 03:45:27;;;;;;;6.72;6.22;;;;;;;;;;5074458;28;20197;-81
2021/04/29 03:47:54;;;;;;;6.45;5.88;;;;;;;;;;5074388;28;20577;-81
2021/04/29 03:50:21;;;;;;;7.88;7.00;;;;;;;;;;5074137;28;20197;-81
2021/04/29 03:52:48;;;;;;;6.72;6.13;;;;;;;;;;5074029;28;20228;-81
2021/04/29 03:55:15;;;;;;;7.75;6.95;;;;;;;;;;5073653;28;20535;-81
2021/04/29 03:57:44;;;;;;;9.15;8.20;;;;;;;;;;5074461;28;20201;-81
2021/04/29 04:00:14;;;;;;;6.65;6.05;;;;;;;;;;5074487;28;20197;-81
2021/04/29 04:02:41;;;;;;;7.80;7.10;;;;;;;;;;5074789;28;20217;-81
2021/04/29 04:05:09;;;;;;;7.07;6.47;;;;;;;;;;5073469;28;20225;-81
2021/04/29 04:07:36;;;;;;;9.07;8.15;;;;;;;;;;5073980;28;20255;-81
2021/04/29 04:10:06;;;;;;;8.88;8.02;;;;;;;;;;5074749;28;20537;-81
2021/04/29 04:12:34;;;;;;;7.75;7.05;;;;;;;;;;5074415;28;20221;-81
2021/04/29 04:15:01;;;;;;;7.63;6.93;;;;;;;;;;5073787;28;20192;-80
2021/04/29 04:17:28;;;;;;;7.35;6.65;;;;;;;;;;5074163;28;20196;-81
2021/04/29 04:19:55;;;;;;;7.18;6.50;;;;;;;;;;5074183;28;20208;-81
2021/04/29 04:22:22;;;;;;;8.30;7.60;;;;;;;;;;5073843;28;20591;-81
2021/04/29 04:24:49;;;;;;;8.85;7.95;;;;;;;;;;5073300;28;20598;-81
2021/04/29 04:27:16;;;;;;;8.98;8.07;;;;;;;;;;5073307;28;20217;-81
2021/04/29 04:29:42;;;;;;;8.52;7.50;;;;;;;;;;5074377;28;20562;-81
2021/04/29 04:32:09;;;;;;;10.32;9.35;;;;;;;;;;5073306;28;20590;-81
2021/04/29 04:34:37;;;;;;;9.88;8.98;;;;;;;;;;5073259;28;20182;-81
2021/04/29 04:37:04;;;;;;;9.73;8.73;;;;;;;;;;5073788;28;20205;-81
2021/04/29 04:39:33;;;;;;;8.20;7.50;;;;;;;;;;5073431;28;20212;-81
2021/04/29 04:42:00;;;;;;;8.48;7.70;;;;;;;;;;5062064;28;20714;-81
2021/04/29 04:44:26;;;;;;;7.88;7.22;;;;;;;;;;5069468;28;20201;-81
2021/04/29 04:46:53;;;;;;;14.25;9.57;;;;;;;;;;5057118;28;20222;-81
2021/04/29 04:49:20;;;;;;;9.45;8.65;;;;;;;;;;5071894;28;20197;-81
2021/04/29 04:51:48;;;;;;;10.02;9.02;;;;;;;;;;5075239;28;20185;-81
2021/04/29 04:54:16;;;;;;;8.77;7.82;;;;;;;;;;5073860;28;20185;-82
2021/04/29 04:56:45;;;;;;;10.73;9.70;;;;;;;;;;5073001;28;20545;-81
2021/04/29 04:59:15;;;;;;;10.00;8.20;;;;;;;;;;5073889;28;20207;-81
2021/04/29 05:01:42;;;;;;;11.45;10.38;;;;;;;;;;5060258;28;20551;-82
2021/04/29 05:04:09;;;;;;;10.18;9.18;;;;;;;;;;5054357;28;20253;-82
2021/04/29 05:06:36;;;;;;;10.32;9.30;;;;;;;;;;5052966;28;20206;-82
2021/04/29 05:09:05;;;;;;;9.10;8.25;;;;;;;;;;5054039;28;20629;-82
2021/04/29 05:11:32;;;;;;;9.15;8.25;;;;;;;;;;5053491;28;20198;-82
2021/04/29 05:14:00;;;;;;;8.02;7.32;;;;;;;;;;5052941;28;20267;-82
2021/04/29 05:16:27;;;;;;;9.20;8.30;;;;;;;;;;5054177;28;20204;-82
2021/04/29 05:18:54;;;;;;;9.02;8.23;;;;;;;;;;5052877;28;20206;-83
2021/04/29 05:21:20;;;;;;;8.52;7.63;;;;;;;;;;5053194;28;20217;-82
2021/04/29 05:23:47;;;;;;;8.80;7.95;;;;;;;;;;5052803;28;20232;-83
2021/04/29 05:26:15;;;;;;;8.70;7.68;;;;;;;;;;5053059;28;20218;-83
2021/04/29 05:28:41;;;;;;;8.35;7.60;;;;;;;;;;5054283;28;20213;-82
2021/04/29 05:31:08;;;;;;;7.57;6.80;;;;;;;;;;5054283;28;20205;-83
2021/04/29 05:33:35;;;;;;;7.63;6.50;;;;;;;;;;5054000;28;20218;-82
2021/04/29 05:36:02;;;;;;;7.03;6.32;;;;;;;;;;5053592;28;20208;-83
2021/04/29 05:38:29;;;;;;;6.75;6.15;;;;;;;;;;5054229;28;20190;-81
2021/04/29 05:40:56;;;;;;;6.47;5.88;;;;;;;;;;5053552;28;20198;-83
2021/04/29 05:43:23;;;;;;;6.38;5.82;;;;;;;;;;5053917;28;20226;-84
2021/04/29 05:45:50;;;;;;;5.90;5.30;;;;;;;;;;5053649;28;20209;-83
2021/04/29 05:48:17;;;;;;;5.60;5.15;;;;;;;;;;5052931;28;20218;-83
2021/04/29 05:50:44;;;;;;;6.65;5.55;;;;;;;;;;5053272;28;20588;-82
2021/04/29 05:53:11;;;;;;;7.00;5.80;;;;;;;;;;5053133;28;20222;-83
2021/04/29 05:55:38;;;;;;;6.10;5.60;;;;;;;;;;5052812;28;20205;-83
2021/04/29 05:58:05;;;;;;;5.55;4.72;;;;;;;;;;5053284;28;20204;-83
2021/04/29 06:00:34;;;;;;;5.88;5.38;;;;;;;;;;5053299;28;20247;-83
2021/04/29 06:03:01;;;;;;;5.60;5.10;;;;;;;;;;5053476;28;20260;-84
2021/04/29 06:05:28;;;;;;;7.50;5.90;;;;;;;;;;5053522;28;20209;-82
2021/04/29 06:07:55;;;;;;;7.75;6.10;;;;;;;;;;5054071;28;20228;-83
2021/04/29 06:10:23;;;;;;;6.43;5.82;;;;;;;;;;5053580;28;20664;-83
2021/04/29 06:12:50;;;;;;;7.10;5.00;;;;;;;;;;5053376;28;20228;-83
2021/04/29 06:15:18;;;;;;;6.82;6.05;;;;;;;;;;5052559;28;20194;-82
2021/04/29 06:17:45;;;;;;;7.22;5.60;;;;;;;;;;5053246;28;20575;-82
2021/04/29 06:20:14;;;;;;;5.47;4.97;;;;;;;;;;5052992;28;20194;-82
2021/04/29 06:22:41;;;;;;;5.25;4.45;;;;;;;;;;5052796;28;20217;-82
2021/04/29 06:25:10;;;;;;;5.55;5.05;;;;;;;;;;5053041;28;20201;-83
2021/04/29 06:27:38;;;;;;;5.18;4.68;;;;;;;;;;5053126;28;20221;-82
2021/04/29 06:30:07;;;;;;;5.97;5.45;;;;;;;;;;5052785;28;20205;-82
2021/04/29 06:32:34;;;;;;;6.25;5.65;;;;;;;;;;5053204;28;20225;-82
2021/04/29 06:35:02;;;;;;;7.90;5.53;;;;;;;;;;5052997;28;20212;-82
2021/04/29 06:37:29;;;;;;;5.47;5.00;;;;;;;;;;5053765;28;20189;-83
2021/04/29 06:39:56;;;;;;;6.97;6.18;;;;;;;;;;5054003;28;20256;-82
2021/04/29 06:42:23;;;;;;;5.53;5.03;;;;;;;;;;5052837;28;20222;-82
2021/04/29 06:44:50;;;;;;;6.53;5.15;;;;;;;;;;5053253;28;20209;-83
2021/04/29 06:47:21;;;;;;;7.30;5.47;;;;;;;;;;5053101;28;20221;-83
2021/04/29 06:49:47;;;;;;;5.85;5.20;;;;;;;;;;5053113;28;20232;-82
2021/04/29 06:52:17;;;;;;;5.40;4.90;;;;;;;;;;5052734;28;20218;-82
2021/04/29 06:54:44;;;;;;;5.40;4.70;;;;;;;;;;5052985;28;20198;-82
2021/04/29 06:57:11;;;;;;;7.85;5.20;;;;;;;;;;5052550;28;20202;-81
2021/04/29 06:59:38;;;;;;;6.13;5.00;;;;;;;;;;5052938;28;20201;-84
2021/04/29 07:02:04;;;;;;;5.63;4.90;;;;;;;;;;5053075;28;20221;-82
2021/04/29 07:04:31;;;;;;;5.35;4.35;;;;;;;;;;5053254;28;20230;-83
2021/04/29 07:06:59;;;;;;;5.10;4.60;;;;;;;;;;5053081;28;20735;-83
2021/04/29 07:09:26;;;;;;;4.97;4.47;;;;;;;;;;5053304;28;20198;-83
2021/04/29 07:11:54;;;;;;;6.28;5.07;;;;;;;;;;5052647;28;20221;-83
2021/04/29 07:14:21;;;;;;;5.35;4.95;;;;;;;;;;5054602;28;20292;-83
2021/04/29 07:16:48;;;;;;;5.85;5.30;;;;;;;;;;5055922;28;20231;-83
2021/04/29 07:19:15;;;;;;;4.50;4.10;;;;;;;;;;5057158;28;20216;-82
2021/04/29 07:21:42;;;;;;;5.30;4.78;;;;;;;;;;5056512;28;20205;-82
2021/04/29 07:24:10;;;;;;;5.95;5.43;;;;;;;;;;5057215;28;20202;-82
2021/04/29 07:26:37;;;;;;;5.03;4.53;;;;;;;;;;5056449;28;20205;-82
2021/04/29 07:29:05;;;;;;;4.90;4.30;;;;;;;;;;5056198;28;20208;-82
2021/04/29 07:31:32;;;;;;;5.35;4.43;;;;;;;;;;5056135;28;20232;-82
2021/04/29 07:33:58;;;;;;;5.45;4.90;;;;;;;;;;5057521;28;20206;-81
2021/04/29 07:36:25;;;;;;;5.97;5.47;;;;;;;;;;5057142;28;20251;-83
2021/04/29 07:38:52;;;;;;;9.00;5.50;;;;;;;;;;5056946;28;20201;-83
2021/04/29 07:41:23;;;;;;;4.88;4.43;;;;;;;;;;5057029;28;20572;-84
2021/04/29 07:43:51;;;;;;;7.47;5.00;;;;;;;;;;5056508;28;20316;-83
2021/04/29 07:46:18;;;;;;;5.90;5.30;;;;;;;;;;5056408;28;20687;-83
2021/04/29 07:48:45;;;;;;;6.93;5.50;;;;;;;;;;5056870;28;20271;-83
2021/04/29 07:51:12;;;;;;;6.60;5.90;;;;;;;;;;5057044;28;20217;-84
2021/04/29 07:53:39;;;;;;;5.57;5.07;;;;;;;;;;5057275;28;20221;-84
2021/04/29 07:56:06;;;;;;;5.90;5.15;;;;;;;;;;5056018;28;20198;-84
2021/04/29 07:58:33;;;;;;;7.68;6.13;;;;;;;;;;5056206;28;20273;-84
2021/04/29 08:01:01;;;;;;;6.68;6.07;;;;;;;;;;5056419;28;20676;-85
2021/04/29 08:03:28;;;;;;;5.95;5.45;;;;;;;;;;5057721;28;20229;-85
2021/04/29 08:05:55;;;;;;;6.32;5.53;;;;;;;;;;5057099;28;20610;-84
2021/04/29 08:08:22;;;;;;;5.82;5.32;;;;;;;;;;5056410;28;20606;-84
2021/04/29 08:10:49;;;;;;;8.50;5.50;;;;;;;;;;5057479;28;20193;-84
2021/04/29 08:13:16;;;;;;;6.07;5.47;;;;;;;;;;5057568;28;20226;-84
2021/04/29 08:15:43;;;;;;;6.38;5.78;;;;;;;;;;5056664;28;20197;-85
2021/04/29 08:18:12;;;;;;;6.63;5.68;;;;;;;;;;5056202;28;20197;-84
2021/04/29 08:20:39;;;;;;;6.97;5.43;;;;;;;;;;5056671;28;20582;-85
2021/04/29 08:23:07;;;;;;;8.27;6.03;;;;;;;;;;5056491;28;20222;-85
2021/04/29 08:25:34;;;;;;;6.47;5.97;;;;;;;;;;5055587;28;20448;-85
2021/04/29 08:28:02;;;;;;;7.43;6.00;;;;;;;;;;5056286;28;20222;-85
2021/04/29 08:30:29;;;;;;;7.18;5.82;;;;;;;;;;5056516;28;20721;-84
2021/04/29 08:32:57;;;;;;;6.95;5.75;;;;;;;;;;5057458;28;20364;-85
2021/04/29 08:35:25;;;;;;;8.10;5.70;;;;;;;;;;5056325;28;20206;-84
2021/04/29 08:37:53;;;;;;;6.00;5.47;;;;;;;;;;5056044;28;20503;-85
2021/04/29 08:40:21;;;;;;;6.28;5.68;;;;;;;;;;5056373;28;20344;-84
2021/04/29 08:42:48;;;;;;;5.93;5.40;;;;;;;;;;5055813;28;20230;-85
2021/04/29 08:45:16;;;;;;;6.32;5.72;;;;;;;;;;5055608;28;20263;-84
2021/04/29 08:47:46;;;;;;;6.20;5.60;;;;;;;;;;5055640;28;20217;-84
2021/04/29 08:50:13;;;;;;;7.85;6.22;;;;;;;;;;5056048;28;20190;-84
2021/04/29 08:52:41;;;;;;;5.95;5.45;;;;;;;;;;5055364;28;20324;-84
2021/04/29 08:55:09;;;;;;;5.47;4.97;;;;;;;;;;5054870;28;20213;-84
2021/04/29 08:57:36;;;;;;;5.80;5.28;;;;;;;;;;5055591;28;20198;-84
2021/04/29 09:00:05;;;;;;;5.95;5.35;;;;;;;;;;5055289;28;20208;-84
2021/04/29 09:02:33;;;;;;;7.78;5.70;;;;;;;;;;5055457;28;20279;-85
2021/04/29 09:05:11;;;;;;;6.68;6.07;;;;;;;;;;5054633;28;20230;-85
2021/04/29 09:07:39;;;;;;;6.93;6.30;;;;;;;;;;5055850;28;20267;-85
2021/04/29 09:10:08;;;;;;;7.70;6.95;;;;;;;;;;5055771;28;20202;-83
2021/04/29 09:12:39;;;;;;;6.22;5.60;;;;;;;;;;5055474;28;20222;-85
2021/04/29 09:15:08;;;;;;;6.78;6.00;;;;;;;;;;5055001;28;20672;-84
2021/04/29 09:17:34;;;;;;;6.53;5.93;;;;;;;;;;5055301;28;20197;-85
2021/04/29 09:20:01;;;;;;;5.97;5.47;;;;;;;;;;5055379;28;20206;-85
2021/04/29 09:22:28;;;;;;;7.47;6.40;;;;;;;;;;5055562;28;20224;-85
2021/04/29 09:24:56;;;;;;;7.00;6.40;;;;;;;;;;5055510;28;20213;-85
2021/04/29 09:27:24;;;;;;;5.28;4.82;;;;;;;;;;5055227;28;20201;-84
2021/04/29 09:29:53;;;;;;;5.75;5.10;;;;;;;;;;5055264;28;20208;-84
2021/04/29 09:32:25;;;;;;;6.07;5.00;;;;;;;;;;5055644;28;20320;-85
2021/04/29 09:34:52;;;;;;;6.07;5.40;;;;;;;;;;5055239;28;20201;-84
2021/04/29 09:37:31;;;;;;;7.57;6.88;;;;;;;;;;5054101;28;20262;-84
2021/04/29 09:39:59;;;;;;;5.93;5.43;;;;;;;;;;5055996;28;20607;-84
2021/04/29 09:42:32;;;;;;;6.25;5.63;;;;;;;;;;5055230;28;20222;-84
2021/04/29 09:44:59;;;;;;;6.60;6.00;;;;;;;;;;5054864;28;20205;-84
2021/04/29 09:47:26;;;;;;;6.93;6.30;;;;;;;;;;5055775;28;20525;-85
2021/04/29 09:49:53;;;;;;;8.27;6.20;;;;;;;;;;5055534;28;20197;-85
2021/04/29 09:52:22;;;;;;;13.18;7.32;;;;;;;;;;5055586;28;20221;-85
2021/04/29 09:54:49;;;;;;;7.95;7.25;;;;;;;;;;5055096;28;20292;-85
2021/04/29 09:57:24;;;;;;;8.18;6.93;;;;;;;;;;5054852;28;20719;-85
2021/04/29 09:59:55;;;;;;;9.52;7.57;;;;;;;;;;5055919;28;20204;-84
2021/04/29 10:02:23;;;;;;;8.40;7.60;;;;;;;;;;5055627;28;20217;-85
2021/04/29 10:04:51;;;;;;;7.40;6.70;;;;;;;;;;5055638;28;20225;-84
2021/04/29 10:07:19;;;;;;;9.15;7.38;;;;;;;;;;5054810;28;20672;-85
2021/04/29 10:09:49;;;;;;;9.75;8.75;;;;;;;;;;5055377;28;20232;-85
2021/04/29 10:12:18;;;;;;;8.32;7.10;;;;;;;;;;5055535;28;20221;-86
2021/04/29 10:14:47;;;;;;;8.77;7.88;;;;;;;;;;5055530;28;20209;-85
2021/04/29 10:17:17;;;;;;;8.98;7.07;;;;;;;;;;5055751;28;20189;-84
2021/04/29 10:19:45;;;;;;;9.30;7.10;;;;;;;;;;5055639;28;20202;-85
2021/04/29 10:22:13;;;;;;;7.22;6.53;;;;;;;;;;5055326;28;20237;-86
2021/04/29 10:24:42;;;;;;;6.68;5.95;;;;;;;;;;5055975;28;20209;-86
2021/04/29 10:27:10;;;;;;;7.75;6.75;;;;;;;;;;5055812;28;20288;-85
2021/04/29 10:29:39;;;;;;;8.23;6.55;;;;;;;;;;5056023;28;20232;-86
2021/04/29 10:32:11;;;;;;;6.20;5.60;;;;;;;;;;5056078;28;20225;-86
2021/04/29 10:34:40;;;;;;;5.78;4.90;;;;;;;;;;5055439;28;20611;-86
2021/04/29 10:37:16;;;;;;;8.73;5.28;;;;;;;;;;5055500;28;20648;-86
2021/04/29 10:39:54;;;;;;;5.72;4.57;;;;;;;;;;5055379;28;20201;-85
2021/04/29 10:42:21;;;;;;;5.72;3.08;;;;;;;;;;5056611;28;20229;-86
2021/04/29 10:44:53;;;;;;;3.95;3.00;;;;;;;;;;5056045;28;20206;-84
2021/04/29 10:47:26;;;;;;;2.72;2.53;;;;;;;;;;5055854;28;20201;-85
2021/04/29 10:50:06;;;;;;;2.65;2.20;;;;;;;;;;5058477;28;20232;-85
2021/04/29 10:52:45;;;;;;;1.90;1.80;;;;;;;;;;5060043;28;20233;-85
2021/04/29 10:55:24;;;;;;;5.10;2.30;;;;;;;;;;5061606;28;20194;-85
2021/04/29 10:57:51;;;;;;;2.20;2.00;;;;;;;;;;5062910;28;20206;-86
2021/04/29 11:00:20;;;;;;;2.40;2.20;;;;;;;;;;5063414;28;20205;-84
2021/04/29 11:02:58;;;;;;;2.50;2.30;;;;;;;;;;5065588;28;20577;-85
2021/04/29 11:05:25;;;;;;;1.80;1.70;;;;;;;;;;5064127;28;20205;-85
2021/04/29 11:07:53;;;;;;;1.95;1.85;;;;;;;;;;5063476;28;20208;-86
2021/04/29 11:10:24;;;;;;;1.90;1.80;;;;;;;;;;5062940;28;20250;-85
2021/04/29 11:12:53;;;;;;;2.63;1.83;;;;;;;;;;5062250;28;20245;-83
2021/04/29 11:15:24;;;;;;;2.63;1.58;;;;;;;;;;5063680;28;20197;-85
2021/04/29 11:18:09;;;;;;;1.73;1.63;;;;;;;;;;5064549;28;20212;-82
2021/04/29 11:20:49;;;;;;;1.92;1.77;;;;;;;;;;5060030;28;20225;-82
2021/04/29 11:23:18;;;;;;;1.85;1.58;;;;;;;;;;5057856;28;20221;-83
2021/04/29 11:25:45;;;;;;;2.17;1.95;;;;;;;;;;5056516;28;20205;-82
2021/04/29 11:28:12;;;;;;;1.63;1.52;;;;;;;;;;5056523;28;20198;-84
2021/04/29 11:30:40;;;;;;;3.65;2.17;;;;;;;;;;5057642;28;20194;-83
2021/04/29 11:33:12;;;;;;;1.92;1.77;;;;;;;;;;5057029;28;20773;-82
2021/04/29 11:35:42;;;;;;;2.67;2.20;;;;;;;;;;5058357;28;20208;-83
2021/04/29 11:38:11;;;;;;;3.67;2.20;;;;;;;;;;5057049;28;20209;-83
2021/04/29 11:40:38;;;;;;;2.33;2.22;;;;;;;;;;5056691;28;20205;-82
2021/04/29 11:43:06;;;;;;;3.17;2.88;;;;;;;;;;5056511;28;20213;-84
2021/04/29 11:45:35;;;;;;;3.75;3.45;;;;;;;;;;5056117;28;20369;-84
2021/04/29 11:48:06;;;;;;;3.78;3.20;;;;;;;;;;5058376;28;20268;-83
2021/04/29 11:50:35;;;;;;;3.40;3.10;;;;;;;;;;5056616;28;20248;-82
2021/04/29 11:53:10;;;;;;;3.92;3.40;;;;;;;;;;5056637;28;20232;-83
2021/04/29 11:55:40;;;;;;;4.43;3.38;;;;;;;;;;5055854;28;20679;-82
2021/04/29 11:58:09;;;;;;;3.10;2.80;;;;;;;;;;5056068;28;20205;-82
2021/04/29 12:00:40;;;;;;;3.70;3.10;;;;;;;;;;5054570;28;20194;-83
2021/04/29 12:03:09;;;;;;;3.00;2.80;;;;;;;;;;5055570;28;20242;-83
2021/04/29 12:05:40;;;;;;;2.80;2.58;;;;;;;;;;5054517;28;20193;-84
2021/04/29 12:08:15;;;;;;;3.90;2.80;;;;;;;;;;5054804;28;20212;-83
2021/04/29 12:10:48;;;;;;;4.82;3.10;;;;;;;;;;5055275;28;20217;-84
2021/04/29 12:13:18;;;;;;;4.40;3.15;;;;;;;;;;5054900;28;20654;-83
2021/04/29 12:15:45;;;;;;;3.47;3.17;;;;;;;;;;5054008;28;20204;-83
2021/04/29 12:18:14;;;;;;;3.40;3.10;;;;;;;;;;5054574;28;20202;-85
2021/04/29 12:20:42;;;;;;;2.92;2.72;;;;;;;;;;5054309;28;20198;-84
2021/04/29 12:23:11;;;;;;;2.92;2.65;;;;;;;;;;5054702;28;20300;-83
2021/04/29 12:25:38;;;;;;;2.90;2.70;;;;;;;;;;5054307;28;20263;-83
2021/04/29 12:28:18;;;;;;;2.67;2.47;;;;;;;;;;5054227;28;20668;-83
2021/04/29 12:30:45;;;;;;;3.17;2.88;;;;;;;;;;5054459;28;20225;-83
2021/04/29 12:33:20;;;;;;;1.90;1.80;;;;;;;;;;5054018;28;20222;-83
2021/04/29 12:35:48;;;;;;;2.47;2.30;;;;;;;;;;5053665;28;20205;-83
2021/04/29 12:38:16;;;;;;;4.70;3.50;;;;;;;;;;5054077;28;20213;-84
2021/04/29 12:40:43;;;;;;;6.28;3.00;;;;;;;;;;5054787;28;20194;-83
2021/04/29 12:43:16;;;;;;;3.05;2.75;;;;;;;;;;5054706;28;20216;-83
2021/04/29 12:45:52;;;;;;;2.95;2.33;;;;;;;;;;5054623;28;20194;-84
2021/04/29 12:48:33;;;;;;;2.92;2.55;;;;;;;;;;5055422;28;20304;-83
2021/04/29 12:51:20;;;;;;;2.00;1.90;;;;;;;;;;5055240;28;20206;-84
2021/04/29 12:53:59;;;;;;;1.90;1.77;;;;;;;;;;5055047;28;20225;-83
2021/04/29 12:56:28;;;;;;;2.25;1.80;;;;;;;;;;5054632;28;20218;-82
2021/04/29 12:58:55;;;;;;;2.00;1.90;;;;;;;;;;5055063;28;20211;-83
2021/04/29 13:01:24;;;;;;;1.80;1.70;;;;;;;;;;5054721;28;20198;-84
2021/04/29 13:03:52;;;;;;;1.90;1.80;;;;;;;;;;5054862;28;20245;-83
2021/04/29 13:06:19;;;;;;;1.70;1.60;;;;;;;;;;5053455;28;20198;-83
2021/04/29 13:08:59;;;;;;;1.80;1.65;;;;;;;;;;5053814;28;20209;-83
2021/04/29 13:11:37;;;;;;;1.48;1.38;;;;;;;;;;5053656;28;20201;-83
2021/04/29 13:14:13;;;;;;;1.83;1.58;;;;;;;;;;5055002;28;20206;-83
2021/04/29 13:16:42;;;;;;;3.92;1.60;;;;;;;;;;5054078;28;20240;-83
2021/04/29 13:19:12;;;;;;;1.65;1.55;;;;;;;;;;5053800;28;20202;-83
2021/04/29 13:21:40;;;;;;;2.05;1.83;;;;;;;;;;5053693;28;20201;-83
2021/04/29 13:24:08;;;;;;;1.50;1.40;;;;;;;;;;5053681;28;20193;-83
2021/04/29 13:26:36;;;;;;;1.75;1.58;;;;;;;;;;5053175;28;20201;-84
2021/04/29 13:29:04;;;;;;;1.67;1.42;;;;;;;;;;5053025;28;20404;-83
2021/04/29 13:31:31;;;;;;;1.48;1.38;;;;;;;;;;5053235;28;20255;-83
2021/04/29 13:33:59;;;;;;;1.58;1.48;;;;;;;;;;5053052;28;20691;-83
2021/04/29 13:36:26;;;;;;;2.42;2.25;;;;;;;;;;5053289;28;20275;-83
2021/04/29 13:38:53;;;;;;;1.60;1.50;;;;;;;;;;5051944;28;20208;-83
2021/04/29 13:41:20;;;;;;;1.58;1.48;;;;;;;;;;5051889;28;20581;-84
2021/04/29 13:43:47;;;;;;;1.42;1.30;;;;;;;;;;5051773;28;20218;-83
2021/04/29 13:46:14;;;;;;;2.53;1.63;;;;;;;;;;5051466;28;20198;-83
2021/04/29 13:48:41;;;;;;;1.38;1.27;;;;;;;;;;5051892;28;20281;-83
2021/04/29 13:51:08;;;;;;;2.15;1.70;;;;;;;;;;5051215;28;20757;-83
2021/04/29 13:53:36;;;;;;;1.83;1.50;;;;;;;;;;5052368;28;20229;-83
2021/04/29 13:56:04;;;;;;;3.78;2.40;;;;;;;;;;5052120;28;20198;-83
2021/04/29 13:58:30;;;;;;;2.40;2.20;;;;;;;;;;5052955;28;20202;-83
2021/04/29 14:00:57;;;;;;;2.05;1.95;;;;;;;;;;5052195;28;20197;-84
2021/04/29 14:03:24;;;;;;;1.60;1.50;;;;;;;;;;5053650;28;20233;-83
2021/04/29 14:05:51;;;;;;;2.40;2.20;;;;;;;;;;5052824;28;20584;-84
2021/04/29 14:08:18;;;;;;;1.80;1.70;;;;;;;;;;5053030;28;20557;-83
2021/04/29 14:10:46;;;;;;;1.80;1.70;;;;;;;;;;5052772;28;20700;-82
2021/04/29 14:13:12;;;;;;;2.10;1.90;;;;;;;;;;5050993;28;20230;-84
2021/04/29 14:15:39;;;;;;;1.95;1.85;;;;;;;;;;5053024;28;20208;-83
2021/04/29 14:18:06;;;;;;;1.90;1.80;;;;;;;;;;5053097;28;20693;-84
2021/04/29 14:20:33;;;;;;;1.77;1.67;;;;;;;;;;5052709;28;20665;-83
2021/04/29 14:23:00;;;;;;;2.03;1.92;;;;;;;;;;5054562;28;20271;-85
2021/04/29 14:25:27;;;;;;;2.25;2.05;;;;;;;;;;5057502;28;20205;-84
2021/04/29 14:27:57;;;;;;;2.53;2.33;;;;;;;;;;5055916;28;20201;-83
2021/04/29 14:30:24;;;;;;;2.40;2.20;;;;;;;;;;5056856;28;20285;-83
2021/04/29 14:32:51;;;;;;;3.22;3.03;;;;;;;;;;5056424;28;20218;-83
2021/04/29 14:35:18;;;;;;;3.00;2.80;;;;;;;;;;5056631;28;20213;-83
2021/04/29 14:37:45;;;;;;;3.03;2.78;;;;;;;;;;5056116;28;20209;-82
2021/04/29 14:40:14;;;;;;;3.70;3.40;;;;;;;;;;5057591;28;20205;-84
2021/04/29 14:42:42;;;;;;;4.60;4.10;;;;;;;;;;5056517;28;20209;-83
2021/04/29 14:45:12;;;;;;;7.47;6.78;;;;;;;;;;5054956;28;20582;-85
2021/04/29 14:47:39;;;;;;;6.32;5.38;;;;;;;;;;5056777;28;20201;-86
2021/04/29 14:50:08;;;;;;;7.47;6.78;;;;;;;;;;5057566;28;20451;-85